createdAt,value
2019-04-07T00:00:01.387Z,0.83
2019-04-07T00:05:11.170Z,0.70
2019-04-07T00:10:01.735Z,0.58
2019-04-07T00:15:01.059Z,0.27
2019-04-07T00:20:01.559Z,0.76
2019-04-07T00:25:01.052Z,0.66
2019-04-07T00:30:01.938Z,0.11
2019-04-07T00:35:01.040Z,0.10
2019-04-07T00:40:02.224Z,0.59
2019-04-07T00:45:02.158Z,0.17
2019-04-07T00:50:01.465Z,0.11
2019-04-07T00:55:01.468Z,0.64
2019-04-07T01:00:01.668Z,1.03
2019-04-07T01:05:01.703Z,0.32
2019-04-07T01:10:01.055Z,0.89
2019-04-07T01:15:01.407Z,1.09
2019-04-07T01:20:01.126Z,0.45
2019-04-07T01:25:01.132Z,0.15
2019-04-07T01:30:02.004Z,0.00
2019-04-07T01:35:01.301Z,0.24
2019-04-07T01:40:01.533Z,0.04
2019-04-07T01:45:01.483Z,0.36
2019-04-07T01:50:01.862Z,0.00
2019-04-07T01:55:01.069Z,0.44
2019-04-07T02:00:01.831Z,0.50
2019-04-07T02:05:01.084Z,0.62
2019-04-07T02:10:02.474Z,0.58
2019-04-07T02:15:02.285Z,0.29
2019-04-07T02:20:01.349Z,0.31
2019-04-07T02:25:01.794Z,0.26
2019-04-07T02:30:01.115Z,0.51
2019-04-07T02:35:01.530Z,0.45
2019-04-07T03:20:01.077Z,0.68
2019-04-07T03:25:01.098Z,0.37
2019-04-07T03:30:01.158Z,0.41
2019-04-07T03:35:03.123Z,0.22
2019-04-07T03:40:02.465Z,0.08
2019-04-07T03:45:01.142Z,0.28
2019-04-07T03:50:01.663Z,0.47
2019-04-07T03:55:01.381Z,0.08
2019-04-07T04:00:02.229Z,0.10
2019-04-07T04:05:01.067Z,0.24
2019-04-07T04:10:01.282Z,0.48
2019-04-07T04:15:01.719Z,0.28
2019-04-07T04:20:01.109Z,0.48
2019-04-07T04:25:01.221Z,0.17
2019-04-07T04:30:01.077Z,0.37
2019-04-07T04:35:01.429Z,0.45
2019-04-07T04:40:01.548Z,0.44
2019-04-07T04:45:02.319Z,0.89
2019-04-07T04:50:02.178Z,0.65
2019-04-07T04:55:02.003Z,0.47
2019-04-07T05:00:02.048Z,0.47
2019-04-07T05:05:02.418Z,0.56
2019-04-07T05:10:01.276Z,0.98
2019-04-07T05:15:01.719Z,0.44
2019-04-07T05:20:01.206Z,0.20
2019-04-07T05:25:02.227Z,0.67
2019-04-07T05:30:01.254Z,0.23
2019-04-07T05:35:02.317Z,0.01
2019-04-07T05:40:02.944Z,0.17
2019-04-07T05:45:01.330Z,0.05
2019-04-07T05:50:03.831Z,0.00
2019-04-07T05:55:01.472Z,0.39
2019-04-07T06:00:01.369Z,0.51
2019-04-07T06:05:01.222Z,0.74
2019-04-07T06:10:02.390Z,1.09
2019-04-07T06:15:01.891Z,0.87
2019-04-07T06:20:01.491Z,0.35
2019-04-07T06:25:02.695Z,0.07
2019-04-07T06:30:01.067Z,0.85
2019-04-07T06:35:01.843Z,0.43
2019-04-07T06:40:01.167Z,0.25
2019-04-07T06:45:01.612Z,0.70
2019-04-07T06:50:01.833Z,0.40
2019-04-07T06:55:01.149Z,0.21
2019-04-07T07:00:02.320Z,0.89
2019-04-07T07:05:01.715Z,0.72
2019-04-07T07:10:01.137Z,0.91
2019-04-07T07:15:03.301Z,0.81
2019-04-07T07:20:02.580Z,1.13
2019-04-07T07:25:01.500Z,1.11
2019-04-07T07:30:01.257Z,0.97
2019-04-07T07:35:01.227Z,1.29
2019-04-07T07:40:01.890Z,0.93
2019-04-07T07:45:02.575Z,1.80
2019-04-07T07:50:04.886Z,1.50
2019-04-07T07:55:03.030Z,0.78
2019-04-07T08:00:05.125Z,0.88
2019-04-07T08:05:03.112Z,1.51
2019-04-07T08:10:01.629Z,1.31
2019-04-07T08:15:01.809Z,1.46
2019-04-07T08:20:02.381Z,2.58
2019-04-07T08:25:02.413Z,1.81
2019-04-07T08:30:02.632Z,1.58
2019-04-07T08:35:05.296Z,1.89
2019-04-07T08:40:07.142Z,1.57
2019-04-07T08:45:09.437Z,2.49
2019-04-07T08:50:01.925Z,1.55
2019-04-07T08:55:01.855Z,2.77
2019-04-07T09:00:01.183Z,2.74
2019-04-07T09:05:02.617Z,3.05
2019-04-07T09:10:01.189Z,3.03
2019-04-07T09:15:03.799Z,3.12
2019-04-07T09:20:06.148Z,3.78
2019-04-07T09:25:06.276Z,2.92
2019-04-07T09:30:01.161Z,3.16
2019-04-07T09:35:01.911Z,3.77
2019-04-07T09:40:03.186Z,3.62
2019-04-07T09:45:01.991Z,2.63
2019-04-07T09:50:01.638Z,4.05
2019-04-07T09:55:01.287Z,3.41
2019-04-07T10:00:01.907Z,3.71
2019-04-07T10:05:01.096Z,3.84
2019-04-07T10:10:09.974Z,3.56
2019-04-07T10:15:01.992Z,3.18
2019-04-07T10:20:01.112Z,3.27
2019-04-07T10:25:01.170Z,1.34
2019-04-07T10:30:01.144Z,2.27
2019-04-07T10:35:01.161Z,2.14
2019-04-07T10:40:02.679Z,1.37
2019-04-07T10:45:01.096Z,1.29
2019-04-07T10:50:06.898Z,1.66
2019-04-07T10:55:01.222Z,1.63
2019-04-07T11:00:01.385Z,2.50
2019-04-07T11:05:01.886Z,1.79
2019-04-07T11:10:01.225Z,3.30
2019-04-07T11:15:01.228Z,2.50
2019-04-07T11:20:01.519Z,3.01
2019-04-07T11:25:01.170Z,4.05
2019-04-07T11:30:01.065Z,3.07
2019-04-07T11:35:01.105Z,2.35
2019-04-07T11:40:02.188Z,3.38
2019-04-07T11:45:01.060Z,2.54
2019-04-07T11:50:01.439Z,2.49
2019-04-07T11:55:01.999Z,3.52
2019-04-07T12:00:02.348Z,2.77
2019-04-07T12:05:01.081Z,2.82
2019-04-07T12:10:01.111Z,2.93
2019-04-07T12:15:01.085Z,2.42
2019-04-07T12:20:01.372Z,4.14
2019-04-07T12:25:03.151Z,3.59
2019-04-07T12:30:01.249Z,2.60
2019-04-07T12:35:01.158Z,2.48
2019-04-07T12:40:01.230Z,1.83
2019-04-07T12:45:01.767Z,3.21
2019-04-07T12:50:02.045Z,3.45
2019-04-07T12:55:01.629Z,2.88
2019-04-07T13:00:01.624Z,2.67
2019-04-07T13:05:02.898Z,2.95
2019-04-07T13:10:03.360Z,1.98
2019-04-07T13:15:01.202Z,1.14
2019-04-07T13:20:02.309Z,1.47
2019-04-07T13:25:01.763Z,2.32
2019-04-07T13:30:01.097Z,1.64
2019-04-07T13:35:01.069Z,2.60
2019-04-07T13:40:01.522Z,3.56
2019-04-07T13:45:02.867Z,2.91
2019-04-07T13:50:02.483Z,3.14
2019-04-07T13:55:04.574Z,1.80
2019-04-07T14:00:01.650Z,2.53
2019-04-07T14:05:04.907Z,3.36
2019-04-07T14:10:03.973Z,2.16
2019-04-07T14:15:01.388Z,1.87
2019-04-07T14:20:01.447Z,1.39
2019-04-07T14:25:01.590Z,2.23
2019-04-07T14:30:01.480Z,2.05
2019-04-07T14:35:02.208Z,1.91
2019-04-07T14:40:01.911Z,2.07
2019-04-07T14:45:01.945Z,2.37
2019-04-07T14:50:02.015Z,2.65
2019-04-07T14:55:01.663Z,1.78
2019-04-07T15:00:02.071Z,1.92
2019-04-07T15:05:01.124Z,2.01
2019-04-07T15:10:01.100Z,1.68
2019-04-07T15:15:05.539Z,1.52
2019-04-07T15:20:01.487Z,1.89
2019-04-07T15:25:01.456Z,2.47
2019-04-07T15:30:02.244Z,1.32
2019-04-07T15:35:02.223Z,1.90
2019-04-07T15:40:03.661Z,1.54
2019-04-07T15:45:01.167Z,1.59
2019-04-07T15:50:01.135Z,1.87
2019-04-07T15:55:02.003Z,1.40
2019-04-07T16:00:03.107Z,0.91
2019-04-07T16:05:03.283Z,1.81
2019-04-07T16:10:01.915Z,2.02
2019-04-07T16:15:02.087Z,1.55
2019-04-07T16:20:01.740Z,2.80
2019-04-07T16:25:01.763Z,1.81
2019-04-07T16:30:01.246Z,2.03
2019-04-07T16:35:01.729Z,1.73
2019-04-07T16:40:06.283Z,1.52
2019-04-07T16:45:01.742Z,0.31
2019-04-07T16:50:01.218Z,0.87
2019-04-07T16:55:01.067Z,1.17
2019-04-07T17:00:01.589Z,0.12
2019-04-07T17:05:01.612Z,0.42
2019-04-07T17:10:03.506Z,0.26
2019-04-07T17:15:04.575Z,0.05
2019-04-07T17:20:01.287Z,0.00
2019-04-07T17:25:04.151Z,0.00
2019-04-07T17:30:01.761Z,0.45
2019-04-07T17:35:02.190Z,0.46
2019-04-07T17:40:01.473Z,0.88
2019-04-07T17:45:01.455Z,0.70
2019-04-07T17:50:01.061Z,0.76
2019-04-07T17:55:01.035Z,0.71
2019-04-07T18:00:01.821Z,1.04
2019-04-07T18:05:01.261Z,0.93
2019-04-07T18:10:01.500Z,0.57
2019-04-07T18:15:06.418Z,1.02
2019-04-07T18:20:04.378Z,0.99
2019-04-07T18:25:02.732Z,1.13
2019-04-07T18:30:02.012Z,1.04
2019-04-07T18:35:01.232Z,1.13
2019-04-07T18:40:02.485Z,1.14
2019-04-07T18:45:01.730Z,1.27
2019-04-07T18:50:07.135Z,0.97
2019-04-07T18:55:05.745Z,1.17
2019-04-07T19:00:03.011Z,1.17
2019-04-07T19:05:01.902Z,1.03
2019-04-07T19:10:08.690Z,1.11
2019-04-07T19:15:03.760Z,1.02
2019-04-07T19:20:01.120Z,0.87
2019-04-07T19:25:05.187Z,1.07
2019-04-07T19:30:01.749Z,0.69
2019-04-07T19:35:02.757Z,0.37
2019-04-07T19:40:02.787Z,0.72
2019-04-07T19:45:04.267Z,0.26
2019-04-07T19:50:01.077Z,0.45
2019-04-07T19:55:01.572Z,1.36
2019-04-07T20:00:01.074Z,0.85
2019-04-07T20:05:01.056Z,1.42
2019-04-07T20:10:01.304Z,0.89
2019-04-07T20:15:06.598Z,1.20
2019-04-07T20:20:02.193Z,1.18
2019-04-07T20:25:01.146Z,1.19
2019-04-07T20:30:01.069Z,0.87
2019-04-07T20:35:01.250Z,1.12
2019-04-07T20:40:03.538Z,0.89
2019-04-07T20:45:05.286Z,0.33
2019-04-07T20:50:01.202Z,0.63
2019-04-07T20:55:03.754Z,0.55
2019-04-07T21:00:03.699Z,0.81
2019-04-07T21:05:01.063Z,0.52
2019-04-07T21:10:05.202Z,0.67
2019-04-07T21:15:16.117Z,0.33
2019-04-07T21:20:02.010Z,0.66
2019-04-07T21:25:01.172Z,0.88
2019-04-07T21:30:01.124Z,1.27
2019-04-07T21:35:02.162Z,0.61
2019-04-07T21:40:04.352Z,0.61
2019-04-07T21:45:04.411Z,0.65
2019-04-07T21:50:05.386Z,0.97
2019-04-07T21:55:01.049Z,0.38
2019-04-07T22:00:01.090Z,0.58
2019-04-07T22:05:01.072Z,0.27
2019-04-07T22:10:01.135Z,0.20
2019-04-07T22:15:02.333Z,0.70
2019-04-07T22:20:01.051Z,0.67
2019-04-07T22:25:01.206Z,1.09
2019-04-07T22:30:04.545Z,0.79
2019-04-07T22:35:04.776Z,0.98
2019-04-07T22:40:02.217Z,0.40
2019-04-07T22:45:02.061Z,0.35
2019-04-07T22:50:03.948Z,0.77
2019-04-07T22:55:03.631Z,0.51
2019-04-07T23:00:02.386Z,0.65
2019-04-07T23:05:01.051Z,0.86
2019-04-07T23:10:01.094Z,1.03
2019-04-07T23:15:01.505Z,1.19
2019-04-07T23:20:01.065Z,0.91
2019-04-07T23:25:01.660Z,0.47
2019-04-07T23:30:01.234Z,0.19
2019-04-07T23:35:01.248Z,0.30
2019-04-07T23:40:01.039Z,0.30
2019-04-07T23:45:01.053Z,0.04
2019-04-07T23:50:01.056Z,0.18
2019-04-07T23:55:01.062Z,0.06
